Time;durP1;ratioP1;P1;durP2;ratioP2;P2;SDS_P1;SDS_P2;PMS_P1;PMS_P2;Temp;Humidity;BMP_temperature;BMP_pressure;BME280_temperature;BME280_humidity;BME280_pressure;Samples;Min_cycle;Max_cycle;Signal;HPM_P1;HPM_P2
2022/06/01 00:00:10;;;;;;;13.20;8.75;;;;;;;8.45;100.00;101480.84;5049030;28;20095;-73
2022/06/01 00:02:36;;;;;;;15.65;8.63;;;;;;;8.39;100.00;101478.63;5050487;28;20033;-75
2022/06/01 00:05:03;;;;;;;19.00;10.52;;;;;;;8.36;100.00;101472.66;5050145;28;20041;-74
2022/06/01 00:07:29;;;;;;;12.52;8.88;;;;;;;8.29;100.00;101473.09;5049352;28;20461;-74
2022/06/01 00:09:55;;;;;;;12.68;9.13;;;;;;;8.23;100.00;101473.53;5050572;28;20033;-74
2022/06/01 00:12:21;;;;;;;11.80;8.23;;;;;;;8.16;100.00;101466.97;5050464;28;20175;-74
2022/06/01 00:14:47;;;;;;;10.23;7.47;;;;;;;8.13;100.00;101467.19;5050444;28;20207;-74
2022/06/01 00:17:12;;;;;;;16.65;8.32;;;;;;;8.10;100.00;101459.44;5050346;28;20063;-74
2022/06/01 00:19:38;;;;;;;11.85;7.40;;;;;;;8.10;100.00;101451.50;5050235;28;20125;-74
2022/06/01 00:22:12;;;;;;;8.32;6.43;;;;;;;8.09;100.00;101455.97;5049763;28;20025;-74
2022/06/01 00:24:42;;;;;;;10.73;6.88;;;;;;;8.09;100.00;101453.31;5050498;28;20033;-74
2022/06/01 00:27:08;;;;;;;9.93;7.30;;;;;;;8.11;100.00;101451.41;5050513;28;20048;-74
2022/06/01 00:29:35;;;;;;;11.35;7.20;;;;;;;8.15;100.00;101459.13;5053824;28;20051;-74
2022/06/01 00:32:00;;;;;;;10.57;6.78;;;;;;;8.21;100.00;101462.22;5054117;28;20441;-74
2022/06/01 00:34:26;;;;;;;8.65;6.22;;;;;;;8.28;100.00;101465.25;5054100;28;20103;-74
2022/06/01 00:36:51;;;;;;;10.68;6.10;;;;;;;8.30;100.00;101476.63;5054072;28;20037;-74
2022/06/01 00:39:17;;;;;;;8.52;5.40;;;;;;;8.29;100.00;101472.25;5054093;28;20374;-74
2022/06/01 00:41:42;;;;;;;10.35;6.28;;;;;;;8.30;100.00;101473.97;5053705;28;20492;-75
2022/06/01 00:44:08;;;;;;;9.27;6.63;;;;;;;8.37;100.00;101474.38;5052295;28;20076;-74
2022/06/01 00:46:33;;;;;;;11.80;6.55;;;;;;;8.40;100.00;101474.16;5053945;28;20036;-73
2022/06/01 00:49:06;;;;;;;6.47;5.80;;;;;;;8.41;100.00;101482.00;5053616;28;20369;-74
2022/06/01 00:51:32;;;;;;;8.75;6.32;;;;;;;8.37;100.00;101488.47;5053928;28;20082;-73
2022/06/01 00:53:58;;;;;;;8.70;5.85;;;;;;;8.37;100.00;101490.28;5052092;28;20499;-73
2022/06/01 00:56:31;;;;;;;10.40;6.32;;;;;;;8.39;100.00;101477.75;5053701;28;20044;-73
2022/06/01 00:58:58;;;;;;;10.05;6.40;;;;;;;8.40;100.00;101474.97;5053846;28;20048;-73
2022/06/01 01:01:25;;;;;;;8.77;6.78;;;;;;;8.41;100.00;101473.19;5053882;28;20033;-73
2022/06/01 01:03:56;;;;;;;10.35;7.30;;;;;;;8.42;100.00;101475.75;5053532;28;20040;-74
2022/06/01 01:06:33;;;;;;;10.35;7.45;;;;;;;8.46;100.00;101468.44;5053783;28;20037;-74
2022/06/01 01:08:59;;;;;;;13.35;7.78;;;;;;;8.47;100.00;101470.13;5053740;28;20040;-74
2022/06/01 01:11:56;;;;;;;13.00;8.38;;;;;;;8.53;100.00;101476.81;5053529;28;20074;-74
2022/06/01 01:14:27;;;;;;;13.88;8.45;;;;;;;8.53;100.00;101479.47;5053533;28;20029;-74
2022/06/01 01:16:54;;;;;;;11.98;8.10;;;;;;;8.53;100.00;101475.00;5053358;28;20107;-73
2022/06/01 01:19:31;;;;;;;14.82;9.18;;;;;;;8.53;100.00;101482.13;5053198;28;20079;-73
2022/06/01 01:22:10;;;;;;;11.57;8.32;;;;;;;8.49;100.00;101481.47;5051659;28;20110;-74
2022/06/01 01:24:38;;;;;;;12.60;7.93;;;;;;;8.48;100.00;101474.50;5053578;28;20085;-74
2022/06/01 01:27:05;;;;;;;11.38;8.95;;;;;;;8.50;100.00;101469.09;5053373;28;20127;-73
2022/06/01 01:29:42;;;;;;;13.70;10.15;;;;;;;8.53;100.00;101469.69;5051297;28;20116;-74
2022/06/01 01:32:11;;;;;;;15.07;9.70;;;;;;;8.58;100.00;101469.34;5053330;28;20025;-74
2022/06/01 01:34:37;;;;;;;14.80;9.27;;;;;;;8.59;100.00;101466.59;5053215;28;20127;-74
2022/06/01 01:37:07;;;;;;;15.63;10.80;;;;;;;8.60;100.00;101470.94;5052961;28;20122;-74
2022/06/01 01:39:35;;;;;;;25.25;10.85;;;;;;;8.60;100.00;101470.13;5051618;28;20410;-74
2022/06/01 01:42:01;;;;;;;18.80;10.85;;;;;;;8.60;100.00;101470.13;5052970;28;20028;-74
2022/06/01 01:44:40;;;;;;;24.73;11.60;;;;;;;8.60;100.00;101481.56;5053389;28;20055;-74
2022/06/01 01:47:06;;;;;;;19.73;10.98;;;;;;;8.61;100.00;101482.41;5051774;28;20059;-74
2022/06/01 01:49:38;;;;;;;19.85;10.93;;;;;;;8.60;100.00;101488.69;5053095;28;20068;-74
2022/06/01 01:52:07;;;;;;;19.58;12.10;;;;;;;8.59;100.00;101487.81;5053470;28;20032;-74
2022/06/01 01:55:23;;;;;;;21.58;12.32;;;;;;;8.61;100.00;101491.22;5052997;28;20028;-74
2022/06/01 01:57:51;;;;;;;18.75;12.00;;;;;;;8.62;100.00;101484.94;5010813;28;20037;-74
2022/06/01 02:01:02;;;;;;;21.42;11.10;;;;;;;8.60;100.00;101462.16;5044614;28;20119;-73
2022/06/01 02:03:38;;;;;;;14.23;6.90;;;;;;;8.51;100.00;101462.78;5010477;28;20038;-73
2022/06/01 02:06:08;;;;;;;11.95;4.55;;;;;;;8.40;100.00;101458.22;5049763;28;20053;-73
2022/06/01 02:08:48;;;;;;;5.70;3.45;;;;;;;8.28;100.00;101463.47;5052373;28;20047;-73
2022/06/01 02:14:23;;;;;;;7.15;3.25;;;;;;;8.12;100.00;101466.34;5052510;28;20055;-73
2022/06/01 02:17:01;;;;;;;6.30;3.28;;;;;;;8.08;100.00;101474.63;5052626;28;20096;-72
2022/06/01 02:19:33;;;;;;;6.50;3.00;;;;;;;8.03;100.00;101474.94;5052696;28;20021;-73
2022/06/01 02:21:59;;;;;;;5.28;3.08;;;;;;;8.00;100.00;101472.53;5052726;28;20025;-74
2022/06/01 02:24:25;;;;;;;6.53;2.83;;;;;;;7.96;100.00;101468.38;5052091;28;20044;-73
2022/06/01 02:26:54;;;;;;;7.70;2.80;;;;;;;7.89;100.00;101462.63;5052048;28;20032;-73
2022/06/01 02:29:58;;;;;;;4.75;3.20;;;;;;;7.85;100.00;101455.88;5052257;28;20040;-73
2022/06/01 02:32:26;;;;;;;2.92;2.70;;;;;;;7.84;100.00;101461.28;5040231;28;20072;-74
2022/06/01 02:34:54;;;;;;;6.07;3.30;;;;;;;7.81;100.00;101457.03;5050544;28;20059;-73
2022/06/01 02:37:22;;;;;;;5.20;3.10;;;;;;;7.77;100.00;101445.78;5052080;28;20383;-74
2022/06/01 02:39:52;;;;;;;6.15;3.47;;;;;;;7.70;100.00;101447.19;5051909;28;20033;-74
2022/06/01 02:42:28;;;;;;;4.63;2.67;;;;;;;7.65;100.00;101444.00;5052043;28;20025;-73
2022/06/01 02:44:54;;;;;;;4.63;3.20;;;;;;;7.58;100.00;101440.94;5052096;28;20091;-73
2022/06/01 02:47:21;;;;;;;5.95;2.97;;;;;;;7.57;100.00;101441.03;5051680;28;20033;-73
2022/06/01 02:49:46;;;;;;;5.15;3.20;;;;;;;7.52;100.00;101436.03;5051881;28;20061;-73
2022/06/01 02:52:12;;;;;;;8.27;2.95;;;;;;;7.50;100.00;101439.75;5050821;28;20069;-73
2022/06/01 02:54:37;;;;;;;4.10;3.20;;;;;;;7.49;100.00;101440.69;5050236;28;20040;-73
2022/06/01 02:57:03;;;;;;;4.90;3.50;;;;;;;7.45;100.00;101436.56;5051448;28;20040;-75
2022/06/01 02:59:28;;;;;;;4.38;3.30;;;;;;;7.39;100.00;101437.84;5050072;28;20043;-73
2022/06/01 03:01:53;;;;;;;4.38;3.22;;;;;;;7.31;100.00;101438.34;5050112;28;20028;-73
2022/06/01 03:04:19;;;;;;;6.32;3.78;;;;;;;7.21;100.00;101435.47;5051476;28;20460;-73
2022/06/01 03:06:44;;;;;;;6.53;3.63;;;;;;;7.12;100.00;101441.38;5051524;28;20037;-73
2022/06/01 03:09:11;;;;;;;5.95;3.67;;;;;;;7.04;100.00;101438.38;5051505;28;20060;-75
2022/06/01 03:11:37;;;;;;;5.00;3.53;;;;;;;6.97;100.00;101443.25;5049817;28;20033;-73
2022/06/01 03:14:02;;;;;;;4.93;3.45;;;;;;;6.88;100.00;101442.06;5050973;28;20432;-74
2022/06/01 03:16:28;;;;;;;4.47;3.67;;;;;;;6.81;100.00;101440.75;5051180;28;20102;-72
2022/06/01 03:18:53;;;;;;;6.88;4.53;;;;;;;6.76;100.00;101445.47;5051067;28;20116;-73
2022/06/01 03:21:19;;;;;;;4.82;4.20;;;;;;;6.71;100.00;101442.28;5049202;28;20055;-72
2022/06/01 03:23:45;;;;;;;8.32;5.10;;;;;;;6.68;100.00;101445.13;5049798;28;20120;-72
2022/06/01 03:26:12;;;;;;;5.72;4.35;;;;;;;6.65;100.00;101448.81;5050826;28;20100;-73
2022/06/01 03:28:38;;;;;;;10.10;5.30;;;;;;;6.65;100.00;101446.16;5050723;28;20136;-73
2022/06/01 03:31:05;;;;;;;10.13;5.53;;;;;;;6.61;100.00;101443.81;5051071;28;20075;-73
2022/06/01 03:33:31;;;;;;;7.38;5.28;;;;;;;6.57;100.00;101453.75;5050748;28;20216;-73
2022/06/01 03:35:57;;;;;;;5.28;4.75;;;;;;;6.51;100.00;101455.00;5049411;28;20369;-73
2022/06/01 03:38:22;;;;;;;10.15;6.22;;;;;;;6.45;100.00;101442.16;5050968;28;20025;-73
2022/06/01 03:40:48;;;;;;;5.78;4.90;;;;;;;6.42;100.00;101444.13;5050983;28;20098;-73
2022/06/01 03:43:13;;;;;;;7.32;5.13;;;;;;;6.35;100.00;101447.19;5050356;28;20495;-73
2022/06/01 03:45:55;;;;;;;10.68;6.55;;;;;;;6.34;100.00;101448.16;5050845;28;20369;-73
2022/06/01 03:48:21;;;;;;;;;;;;;;;6.33;100.00;101457.00;5051485;28;20048;-72
2022/06/01 03:50:47;;;;;;;8.00;4.97;;;;;;;6.31;100.00;101456.25;5066082;28;19913;-72
2022/06/01 03:53:13;;;;;;;5.63;5.03;;;;;;;6.26;100.00;101457.50;5050526;28;20449;-73
2022/06/01 03:55:39;;;;;;;6.15;4.68;;;;;;;6.24;100.00;101452.31;5050635;28;20372;-73
2022/06/01 03:58:05;;;;;;;6.38;4.28;;;;;;;6.23;100.00;101455.88;5048721;28;20047;-73
2022/06/01 04:00:30;;;;;;;11.60;6.93;;;;;;;6.25;100.00;101458.44;5050420;28;20071;-73
2022/06/01 04:02:56;;;;;;;7.70;5.55;;;;;;;6.24;100.00;101465.53;5049199;28;20128;-72
2022/06/01 04:05:22;;;;;;;7.43;5.88;;;;;;;6.22;100.00;101461.28;5050024;28;20094;-72
2022/06/01 04:07:49;;;;;;;11.00;7.13;;;;;;;6.20;100.00;101465.81;5050038;28;20029;-72
2022/06/01 04:10:14;;;;;;;7.05;5.45;;;;;;;6.17;100.00;101465.03;5050212;28;20060;-73
2022/06/01 04:12:39;;;;;;;6.18;5.07;;;;;;;6.16;100.00;101459.84;5050407;28;20048;-72
2022/06/01 04:15:08;;;;;;;9.70;6.93;;;;;;;6.15;100.00;101453.72;5050218;28;20036;-73
2022/06/01 04:17:34;;;;;;;8.82;6.43;;;;;;;6.16;100.00;101460.69;5050125;28;20487;-72
2022/06/01 04:20:00;;;;;;;11.60;7.63;;;;;;;6.18;100.00;101458.81;5048887;28;20037;-73
2022/06/01 04:22:25;;;;;;;9.75;7.13;;;;;;;6.21;100.00;101464.84;5050081;28;20032;-72
2022/06/01 04:24:51;;;;;;;9.10;6.07;;;;;;;6.24;100.00;101462.88;5050500;28;20122;-72
2022/06/01 04:27:17;;;;;;;9.95;6.57;;;;;;;6.26;100.00;101457.50;5048642;28;20476;-73
2022/06/01 04:29:43;;;;;;;9.63;6.22;;;;;;;6.28;100.00;101456.44;5050176;28;20045;-72
2022/06/01 04:32:12;;;;;;;11.95;8.02;;;;;;;6.35;100.00;101459.56;5049881;28;20098;-73
2022/06/01 04:34:38;;;;;;;15.82;9.15;;;;;;;6.39;100.00;101462.84;5048516;28;20036;-74
2022/06/01 04:37:05;;;;;;;14.32;9.85;;;;;;;6.43;100.00;101461.72;5050134;28;20437;-72
2022/06/01 04:39:30;;;;;;;11.95;7.20;;;;;;;6.45;100.00;101460.69;5050025;28;20411;-73
2022/06/01 04:41:56;;;;;;;10.80;7.22;;;;;;;6.48;100.00;101457.84;5048736;28;20033;-73
2022/06/01 04:44:21;;;;;;;10.35;6.68;;;;;;;6.53;100.00;101463.66;5047964;28;20152;-74
2022/06/01 04:46:46;;;;;;;12.25;6.75;;;;;;;6.57;100.00;101469.63;5032083;28;20440;-73
2022/06/01 04:49:12;;;;;;;13.32;7.97;;;;;;;6.61;100.00;101465.81;5050093;28;20487;-73
2022/06/01 04:51:38;;;;;;;10.88;7.53;;;;;;;6.68;100.00;101468.94;5048530;28;20029;-73
2022/06/01 04:54:05;;;;;;;11.45;8.20;;;;;;;6.73;100.00;101461.53;5048747;28;20047;-73
2022/06/01 04:56:30;;;;;;;10.68;7.63;;;;;;;6.80;100.00;101469.94;5048241;28;20059;-73
2022/06/01 04:58:56;;;;;;;13.10;8.98;;;;;;;6.86;100.00;101469.53;5049993;28;20037;-73
2022/06/01 05:01:21;;;;;;;11.90;7.97;;;;;;;6.89;100.00;101462.25;5049677;28;20033;-73
2022/06/01 05:03:47;;;;;;;11.30;7.13;;;;;;;6.94;100.00;101467.25;5049452;28;20037;-72
2022/06/01 05:06:12;;;;;;;13.73;9.18;;;;;;;7.01;100.00;101465.88;5049810;28;20112;-72
2022/06/01 05:08:37;;;;;;;12.98;7.75;;;;;;;7.07;100.00;101464.63;5049889;28;20375;-73
2022/06/01 05:11:03;;;;;;;14.32;8.30;;;;;;;7.17;100.00;101473.66;5049801;28;20384;-73
2022/06/01 05:13:28;;;;;;;12.65;8.23;;;;;;;7.27;100.00;101473.06;5049422;28;20051;-73
2022/06/01 05:15:56;;;;;;;18.05;10.15;;;;;;;7.37;100.00;101479.44;5053503;28;20033;-73
2022/06/01 05:18:23;;;;;;;15.80;8.70;;;;;;;7.47;100.00;101474.38;5053279;28;20108;-73
2022/06/01 05:20:49;;;;;;;14.02;8.07;;;;;;;7.57;100.00;101478.13;5053383;28;20033;-73
2022/06/01 05:23:18;;;;;;;24.08;13.38;;;;;;;7.67;100.00;101479.16;5053152;28;20029;-73
2022/06/01 05:25:46;;;;;;;16.52;9.68;;;;;;;7.77;100.00;101477.56;5053262;28;20048;-72
2022/06/01 05:28:12;;;;;;;21.10;11.77;;;;;;;7.89;100.00;101478.53;5051643;28;20048;-71
2022/06/01 05:30:38;;;;;;;18.63;11.23;;;;;;;7.98;100.00;101478.88;5052756;28;20170;-72
2022/06/01 05:33:03;;;;;;;19.05;10.77;;;;;;;8.05;100.00;101477.50;5053124;28;20552;-72
2022/06/01 05:35:29;;;;;;;20.27;10.88;;;;;;;8.17;100.00;101479.28;5053099;28;20211;-71
2022/06/01 05:37:54;;;;;;;21.80;12.65;;;;;;;8.33;100.00;101489.66;5052782;28;20029;-71
2022/06/01 05:40:20;;;;;;;18.40;11.80;;;;;;;8.45;100.00;101483.50;5052951;28;20033;-72
2022/06/01 05:42:45;;;;;;;16.50;10.20;;;;;;;8.57;100.00;101479.13;5052789;28;20029;-72
2022/06/01 05:45:11;;;;;;;17.85;10.32;;;;;;;8.68;100.00;101481.00;5051188;28;20290;-72
2022/06/01 05:47:37;;;;;;;16.08;9.85;;;;;;;8.82;100.00;101486.16;5053130;28;20381;-72
2022/06/01 05:50:05;;;;;;;17.65;10.60;;;;;;;9.00;100.00;101485.75;5052561;28;20035;-72
2022/06/01 05:52:30;;;;;;;13.40;8.40;;;;;;;9.18;100.00;101481.75;5052712;28;20043;-74
2022/06/01 05:54:56;;;;;;;13.98;8.25;;;;;;;9.31;100.00;101494.94;5052561;28;20033;-71
2022/06/01 05:57:21;;;;;;;12.02;7.88;;;;;;;9.48;100.00;101499.00;5053121;28;20449;-72
2022/06/01 05:59:53;;;;;;;10.05;6.38;;;;;;;9.57;100.00;101497.47;5051449;28;20119;-71
2022/06/01 06:02:18;;;;;;;;;;;;;;;9.68;100.00;101494.81;5051748;28;20045;-71
2022/06/01 06:04:43;;;;;;;9.95;7.32;;;;;;;9.87;100.00;101498.75;5052642;28;20311;-75
2022/06/01 06:07:09;;;;;;;10.80;6.80;;;;;;;10.06;100.00;101506.97;5052320;28;20033;-74
2022/06/01 06:09:34;;;;;;;7.28;4.70;;;;;;;10.10;100.00;101502.25;5052226;28;20058;-73
2022/06/01 06:11:59;;;;;;;4.68;4.10;;;;;;;10.18;100.00;101501.66;5052556;28;20157;-73
2022/06/01 06:14:25;;;;;;;7.95;3.40;;;;;;;10.32;100.00;101511.22;5052385;28;20040;-76
2022/06/01 06:16:50;;;;;;;4.00;3.20;;;;;;;10.36;100.00;101510.03;5050808;28;20033;-71
2022/06/01 06:19:17;;;;;;;3.22;2.50;;;;;;;10.40;100.00;101512.34;5050677;28;20039;-73
2022/06/01 06:21:44;;;;;;;5.22;2.25;;;;;;;10.45;100.00;101511.97;5051823;28;20460;-73
2022/06/01 06:24:16;;;;;;;3.58;2.10;;;;;;;10.57;100.00;101518.16;5052542;28;20029;-72
2022/06/01 06:26:46;;;;;;;3.22;1.92;;;;;;;10.68;100.00;101514.63;5051659;28;20091;-73
2022/06/01 06:29:13;;;;;;;2.45;2.05;;;;;;;10.81;100.00;101520.66;5051990;28;20428;-73
2022/06/01 06:31:40;;;;;;;4.22;1.63;;;;;;;10.99;100.00;101526.28;5052042;28;20021;-73
2022/06/01 06:34:06;;;;;;;4.15;1.50;;;;;;;11.06;100.00;101531.94;5051895;28;20037;-74
2022/06/01 06:36:31;;;;;;;3.13;1.40;;;;;;;11.19;100.00;101529.97;5052104;28;20068;-76
2022/06/01 06:38:57;;;;;;;2.92;1.25;;;;;;;11.35;100.00;101526.06;5050522;28;20033;-72
2022/06/01 06:41:23;;;;;;;1.65;1.08;;;;;;;11.47;100.00;101533.03;5051912;28;20037;-72
2022/06/01 06:43:49;;;;;;;3.55;1.38;;;;;;;11.56;100.00;101528.75;5051907;28;20036;-73
2022/06/01 06:46:19;;;;;;;3.45;1.42;;;;;;;11.69;98.82;101539.22;5051947;28;20077;-74
2022/06/01 06:48:48;;;;;;;1.20;1.10;;;;;;;11.81;96.09;101538.19;5052092;28;20107;-73
2022/06/01 06:51:15;;;;;;;2.05;1.15;;;;;;;11.94;93.11;101541.53;5050561;28;20493;-72
2022/06/01 06:53:41;;;;;;;1.77;1.10;;;;;;;12.12;89.79;101543.59;5051925;28;20029;-73
2022/06/01 06:56:07;;;;;;;4.03;1.23;;;;;;;12.31;91.91;101543.69;5051855;28;20033;-75
2022/06/01 06:58:34;;;;;;;1.30;1.20;;;;;;;12.57;92.82;101547.72;5051906;28;20025;-77
2022/06/01 07:00:59;;;;;;;3.80;1.30;;;;;;;12.69;87.93;101549.34;5051265;28;20396;-75
2022/06/01 07:03:25;;;;;;;2.03;1.50;;;;;;;12.73;88.21;101552.56;5049698;28;20439;-74
2022/06/01 07:06:09;;;;;;;5.20;1.40;;;;;;;12.80;87.70;101548.38;5051411;28;20104;-74
2022/06/01 07:08:35;;;;;;;4.82;1.42;;;;;;;12.97;84.91;101561.06;5051193;28;20025;-74
2022/06/01 07:11:01;;;;;;;4.57;1.40;;;;;;;13.08;81.07;101560.09;5051350;28;20480;-73
2022/06/01 07:13:27;;;;;;;2.53;1.45;;;;;;;13.24;82.48;101559.53;5049756;28;20107;-74
2022/06/01 07:16:07;;;;;;;2.63;1.30;;;;;;;13.41;83.70;101558.06;5049639;28;20424;-74
2022/06/01 07:18:34;;;;;;;5.10;1.50;;;;;;;13.48;81.24;101564.53;5051417;28;20111;-76
2022/06/01 07:21:00;;;;;;;4.47;1.33;;;;;;;13.51;76.44;101571.41;5051416;28;20089;-74
2022/06/01 07:23:25;;;;;;;2.25;1.30;;;;;;;13.75;81.28;101565.66;5051188;28;20111;-76
2022/06/01 07:25:52;;;;;;;2.22;1.60;;;;;;;13.85;75.61;101565.63;5049300;28;20033;-77
2022/06/01 07:28:21;;;;;;;2.53;1.55;;;;;;;13.70;74.75;101568.78;5051162;28;20037;-75
2022/06/01 07:30:47;;;;;;;2.85;1.52;;;;;;;13.63;74.91;101575.66;5050971;28;20105;-76
2022/06/01 07:33:12;;;;;;;3.75;1.60;;;;;;;13.62;74.32;101573.13;5051292;28;20061;-76
2022/06/01 07:35:38;;;;;;;2.60;1.30;;;;;;;13.72;72.40;101579.31;5049433;28;20043;-78
2022/06/01 07:43:31;;;;;;;5.32;1.40;;;;;;;13.98;75.68;101579.56;5050611;28;20043;-77
2022/06/01 07:45:56;;;;;;;1.15;1.08;;;;;;;14.11;70.33;101581.94;5050790;28;20049;-76
2022/06/01 07:48:22;;;;;;;2.08;1.20;;;;;;;14.40;73.34;101575.66;5051090;28;20561;-74
2022/06/01 07:50:50;;;;;;;1.63;1.50;;;;;;;14.49;70.91;101576.59;5050346;28;20045;-77
2022/06/01 07:53:16;;;;;;;3.38;1.40;;;;;;;14.37;68.38;101578.63;5049373;28;20417;-75
2022/06/01 07:55:42;;;;;;;4.63;1.63;;;;;;;14.26;69.79;101572.44;5050539;28;20029;-73
2022/06/01 07:58:09;;;;;;;1.58;1.35;;;;;;;14.23;68.80;101590.66;5050540;28;20033;-75
2022/06/01 08:00:35;;;;;;;5.07;1.45;;;;;;;14.11;64.84;101582.78;5049390;28;20084;-74
2022/06/01 08:03:01;;;;;;;2.40;1.30;;;;;;;14.17;66.89;101585.88;5050360;28;20088;-78
2022/06/01 08:05:27;;;;;;;2.88;1.35;;;;;;;14.37;69.50;101581.31;5048830;28;20108;-77
2022/06/01 08:07:52;;;;;;;2.10;1.50;;;;;;;14.59;67.89;101580.94;5050608;28;20033;-77
2022/06/01 08:10:19;;;;;;;7.25;1.55;;;;;;;14.62;65.76;101591.38;5050858;28;20040;-77
2022/06/01 08:15:30;;;;;;;2.67;1.52;;;;;;;14.89;69.24;101589.69;5051078;28;20096;-78
2022/06/01 08:17:57;;;;;;;3.78;1.40;;;;;;;15.05;64.48;101586.38;5050050;28;20044;-75
2022/06/01 08:20:24;;;;;;;1.67;1.33;;;;;;;15.03;65.42;101585.66;5049173;28;20057;-76
2022/06/01 08:22:50;;;;;;;2.88;1.40;;;;;;;14.91;64.58;101601.13;5050851;28;20098;-76
2022/06/01 08:25:16;;;;;;;3.33;1.67;;;;;;;14.60;63.69;101595.16;5050309;28;20033;-76
2022/06/01 08:27:43;;;;;;;2.60;1.40;;;;;;;14.53;64.36;101596.75;5049066;28;20048;-84
2022/06/01 08:30:09;;;;;;;1.73;1.40;;;;;;;14.90;66.38;101593.22;5050525;28;20029;-76
2022/06/01 08:32:35;;;;;;;3.17;1.55;;;;;;;15.59;65.58;101599.81;5049195;28;20514;-77
2022/06/01 08:35:03;;;;;;;1.95;1.40;;;;;;;16.06;61.73;101598.72;5050494;28;20033;-79
2022/06/01 08:37:28;;;;;;;3.53;1.88;;;;;;;16.06;61.59;101604.09;5050282;28;20137;-78
2022/06/01 08:39:53;;;;;;;1.42;1.33;;;;;;;15.94;57.73;101603.50;5050686;28;20433;-76
2022/06/01 08:42:23;;;;;;;3.53;1.48;;;;;;;15.73;60.79;101609.16;5050265;28;20025;-78
2022/06/01 08:44:50;;;;;;;1.67;1.13;;;;;;;16.19;58.96;101596.47;5049940;28;20048;-82
2022/06/01 08:47:18;;;;;;;2.95;1.60;;;;;;;17.00;55.98;101607.81;5050701;28;20370;-81
2022/06/01 08:49:45;;;;;;;1.50;1.40;;;;;;;17.57;53.00;101607.13;5052777;28;20057;-78
2022/06/01 08:52:11;;;;;;;2.42;1.50;;;;;;;17.90;52.77;101600.91;5054071;28;20041;-77
2022/06/01 08:54:36;;;;;;;6.40;1.40;;;;;;;18.31;51.10;101606.28;5035763;28;20033;-76
2022/06/01 08:57:11;;;;;;;3.53;1.27;;;;;;;18.09;52.51;101602.44;5054357;28;20036;-80
2022/06/01 09:00:02;;;;;;;3.95;1.40;;;;;;;17.91;50.76;101606.13;5054519;28;20025;-75
2022/06/01 09:02:37;;;;;;;2.60;1.30;;;;;;;18.47;53.09;101603.53;5052892;28;20056;-81
2022/06/01 09:05:14;;;;;;;3.10;1.40;;;;;;;19.67;46.60;101607.81;5054035;28;20699;-78
2022/06/01 09:07:47;;;;;;;2.28;1.27;;;;;;;20.29;43.17;101608.66;5054344;28;20430;-79
2022/06/01 09:10:51;;;;;;;2.35;1.35;;;;;;;20.58;43.40;101623.22;5054217;28;20119;-77
2022/06/01 09:13:25;;;;;;;4.63;1.55;;;;;;;19.03;48.04;101613.44;5053811;28;20048;-76
2022/06/01 09:16:01;;;;;;;1.80;1.40;;;;;;;18.30;53.19;101615.34;5052364;28;20326;-75
2022/06/01 09:18:43;;;;;;;2.78;1.10;;;;;;;19.30;48.83;101622.94;5053606;28;20065;-75
2022/06/01 09:24:09;;;;;;;1.83;1.30;;;;;;;20.20;44.26;101621.41;5053776;28;20039;-79
2022/06/01 09:26:47;;;;;;;3.80;1.52;;;;;;;18.90;48.34;101627.53;5052986;28;20028;-75
2022/06/01 09:29:19;;;;;;;1.67;1.40;;;;;;;17.52;51.59;101630.97;5052212;28;20029;-75
2022/06/01 09:31:45;;;;;;;;;;;;;;;16.69;54.27;101645.09;5054047;28;20457;-74
2022/06/01 09:34:27;;;;;;;2.30;1.70;;;;;;;16.31;54.63;101639.19;5052805;28;19904;-74
2022/06/01 09:37:02;;;;;;;1.88;1.40;;;;;;;16.15;53.54;101647.94;5053073;28;20029;-76
2022/06/01 09:39:27;;;;;;;2.25;1.52;;;;;;;16.06;55.28;101646.19;5053187;28;20029;-73
2022/06/01 09:42:11;;;;;;;2.78;1.55;;;;;;;16.62;51.84;101644.91;5052682;28;20060;-78
2022/06/01 09:44:44;;;;;;;2.95;1.67;;;;;;;17.97;51.82;101632.41;5051139;28;20045;-72
2022/06/01 09:47:21;;;;;;;1.88;1.30;;;;;;;18.34;49.11;101638.25;5053078;28;20052;-72
2022/06/01 09:49:53;;;;;;;1.77;1.60;;;;;;;18.30;49.28;101631.50;5052901;28;20033;-82
2022/06/01 09:52:31;;;;;;;2.28;1.60;;;;;;;19.77;47.26;101633.75;5053412;28;20519;-83
2022/06/01 09:55:07;;;;;;;3.08;1.73;;;;;;;20.24;43.77;101638.94;5053651;28;20029;-80
2022/06/01 09:57:38;;;;;;;1.63;1.52;;;;;;;21.30;45.53;101632.47;5053198;28;20040;-84
2022/06/01 10:06:09;;;;;;;3.30;2.00;;;;;;;18.79;48.09;101641.34;5052988;28;20079;-82
2022/06/01 10:08:42;;;;;;;8.35;2.30;;;;;;;18.52;50.81;101651.50;5051746;28;20467;-78
2022/06/01 10:11:17;;;;;;;5.20;2.35;;;;;;;18.52;48.39;101646.13;5053622;28;20044;-81
2022/06/01 10:14:15;;;;;;;4.13;2.40;;;;;;;18.31;47.11;101650.19;5052129;28;20051;-81
2022/06/01 10:17:00;;;;;;;3.40;1.90;;;;;;;18.52;50.30;101643.44;5051498;28;20044;-81
2022/06/01 10:19:43;;;;;;;2.70;1.75;;;;;;;18.72;49.58;101640.34;5052501;28;20106;-79
2022/06/01 10:22:16;;;;;;;4.53;1.70;;;;;;;19.83;46.25;101646.56;5051260;28;20178;-73
2022/06/01 10:24:53;;;;;;;4.57;1.52;;;;;;;20.31;42.88;101655.25;5052319;28;20219;-72
2022/06/01 10:27:25;;;;;;;5.22;1.50;;;;;;;20.00;43.78;101644.56;5052527;28;20158;-74
2022/06/01 10:30:04;;;;;;;1.63;1.52;;;;;;;18.84;47.88;101658.69;5052403;28;20039;-72
2022/06/01 10:32:53;;;;;;;3.47;1.95;;;;;;;18.35;48.01;101661.50;5052153;28;20029;-78
2022/06/01 10:35:38;;;;;;;3.25;1.88;;;;;;;17.76;49.04;101664.31;5051943;28;20436;-82
2022/06/01 10:38:28;;;;;;;3.17;2.00;;;;;;;17.65;50.90;101670.88;5051871;28;20052;-76
2022/06/01 10:41:02;;;;;;;4.63;2.85;;;;;;;17.38;52.13;101670.13;5051751;28;20052;-74
2022/06/01 10:44:09;;;;;;;4.05;2.75;;;;;;;17.10;53.61;101674.91;5051431;28;20029;-74
2022/06/01 10:46:59;;;;;;;3.72;2.33;;;;;;;16.84;52.19;101677.59;5049757;28;20085;-76
2022/06/01 10:49:34;;;;;;;3.22;2.58;;;;;;;17.55;53.10;101672.84;5051446;28;20087;-75
2022/06/01 10:52:15;;;;;;;4.00;2.85;;;;;;;17.43;53.32;101680.41;5051314;28;20040;-76
2022/06/01 10:55:19;;;;;;;5.93;3.03;;;;;;;18.46;51.80;101674.59;5050180;28;20051;-76
2022/06/01 10:57:47;;;;;;;5.35;2.78;;;;;;;19.16;46.35;101674.94;5029278;28;20041;-76
2022/06/01 11:00:21;;;;;;;3.17;2.45;;;;;;;18.54;47.34;101679.16;5028925;28;20445;-77
2022/06/01 11:03:21;;;;;;;3.90;2.50;;;;;;;18.82;48.98;101676.03;5040598;28;20140;-78
2022/06/01 11:06:04;;;;;;;3.33;2.35;;;;;;;19.58;46.16;101692.56;5038922;28;20048;-75
2022/06/01 11:09:01;;;;;;;4.13;2.75;;;;;;;19.49;47.21;101689.06;5051536;28;20040;-79
2022/06/01 11:11:46;;;;;;;5.18;2.30;;;;;;;19.16;45.64;101681.16;5050832;28;20044;-77
2022/06/01 11:14:41;;;;;;;3.95;2.90;;;;;;;18.25;48.32;101690.44;5051032;28;20060;-80
2022/06/01 11:17:23;;;;;;;3.83;2.88;;;;;;;18.02;49.69;101693.81;5050582;28;20041;-77
2022/06/01 11:19:54;;;;;;;4.38;2.67;;;;;;;18.80;49.37;101688.84;5051175;28;20103;-77
2022/06/01 11:23:14;;;;;;;4.82;2.60;;;;;;;18.75;47.47;101689.38;5051010;28;20127;-76
2022/06/01 11:25:48;;;;;;;6.95;2.72;;;;;;;18.17;48.60;101698.53;5041686;28;20119;-75
2022/06/01 11:28:48;;;;;;;6.35;2.80;;;;;;;19.05;47.27;101691.47;5050653;28;20050;-75
2022/06/01 11:31:25;;;;;;;5.53;2.67;;;;;;;19.52;46.20;101702.22;5050796;28;20033;-74
2022/06/01 11:34:24;;;;;;;3.35;2.78;;;;;;;20.58;46.61;101704.31;5050675;28;20112;-76
2022/06/01 11:37:04;;;;;;;8.80;2.85;;;;;;;21.58;40.99;101700.28;5048882;28;20075;-75
2022/06/01 11:39:44;;;;;;;3.03;2.72;;;;;;;22.46;40.84;101702.78;5050820;28;20135;-76
2022/06/01 11:42:19;;;;;;;5.95;2.80;;;;;;;22.21;39.42;101699.63;5050340;28;20115;-75
2022/06/01 11:44:58;;;;;;;4.10;3.35;;;;;;;22.28;39.77;101705.13;5050453;28;20055;-75
2022/06/01 11:47:25;;;;;;;5.50;2.83;;;;;;;22.94;39.81;101703.94;5050164;28;20488;-76
2022/06/01 11:50:18;;;;;;;5.43;2.72;;;;;;;22.32;40.27;101703.72;5050841;28;20033;-77
2022/06/01 11:52:58;;;;;;;4.80;3.10;;;;;;;21.54;40.42;101711.69;5050834;28;20118;-77
2022/06/01 11:55:30;;;;;;;6.78;3.50;;;;;;;21.46;41.77;101713.44;5051091;28;20146;-76
2022/06/01 11:58:20;;;;;;;5.32;2.72;;;;;;;21.00;40.84;101716.38;5050593;28;20028;-78